aviador You're here:

LFRQ Decoded Metar

QUIMPER in FRANCE
Report Time2017-11-22 05:00:00
UTC Time2017-11-22 05:29:14
Flight Rules vfr VFR
Wind190° at 09 kt
W.Decomp.*RWY 28: 0.5 kt HW 9 kt LCW
W.Rank190° ranks 20
Current wind is above 190° avg. (7.3)
Visibility9999 m
Phenomena:N/A
Clouds:N/A
Expected CloudBase > 400 ft AGL from Temp-Dew spread
CeilingNone
Temp12°C (ISA -2)
Dew Point11°C (94% RH)
AAT9.1°C
QNH1007 hPa
Density Alt404 ft
Elevation308 ft
Report Wrong Elevation
Raw Report
LFRQ 220500Z AUTO 19009KT CAVOK 12/11 Q1007=

Extra information for LFRQ:More info

Metar Taf Metar & Taf Last 4 Metars F.Rules Stats Wind Profile Meteogram Temp Stats Airport Information Weather charts Add Link Nearby VenuesMetar ALERT Operation Metar Decoded Social comments